PWSweather.com
Personal Weather Stations
Station Observations

SasamonSasamonES 09123

Lat: 42.4180252, Lon: -4.0413679

Elevation: 2706.692

Station Type: PCE-FWS 20

http://www.mipaginapersonal.movistar.es/web3/meteosasamon/index.htm

High Low Average
Temperature 56.8°F13.8°C 38.7°F3.7°C 48.5°F9.2°C
Dew Point 30.7°F-0.7°C 18.9°F-7.3°C 22.8°F-5.1°C
Winds 15.3 mph 24.6 kmh 1.7 mph 2.7 kmh 9.0 mph NE14.5 kmh NE
Wind Gusts 28.2 mph45.4 kmh 5.4 mph8.7 kmh 18.0 mph29.0 kmh
Humidity 72% 27% 40%
Pressure 30.25 in1024.4 mb 30.17 in1021.7 mb -
Precipitation 0.00 in0.0 mm - -
Hour Temp Dew Point Humidity Winds Wind Gusts Pressure Precip Precip Rate Daily Precip Total
09:44 AM 39.0°F3.9°C 30.7°F-0.7°C 72% 6.6 mph NE10.6 kmh NE 13.6 mph21.9 kmh 30.24 in1024.0 mb 0.00 in0.0 mm 0.00 in/hr0.0 mm/hr 0.00 in0.0 mm
09:55 AM 40.1°F4.5°C 30.3°F-0.9°C 68% 6.2 mph NNE10.0 kmh NNE 15.9 mph25.6 kmh 30.24 in1024.0 mb 0.00 in0.0 mm 0.00 in/hr0.0 mm/hr 0.00 in0.0 mm
10:06 AM 40.5°F4.7°C 30.2°F-1.0°C 67% 8.0 mph ENE12.9 kmh ENE 16.8 mph27.0 kmh 30.24 in1024.0 mb 0.00 in0.0 mm 0.00 in/hr0.0 mm/hr 0.00 in0.0 mm
10:17 AM 41.9°F5.5°C 30.0°F-1.1°C 63% 6.7 mph NNE10.8 kmh NNE 15.2 mph24.5 kmh 30.24 in1024.0 mb 0.00 in0.0 mm 0.00 in/hr0.0 mm/hr 0.00 in0.0 mm
10:28 AM 42.6°F5.9°C 29.4°F-1.4°C 60% 7.2 mph NNE11.6 kmh NNE 14.5 mph23.3 kmh 30.25 in1024.4 mb 0.00 in0.0 mm 0.00 in/hr0.0 mm/hr 0.00 in0.0 mm
10:39 AM 43.2°F6.2°C 28.1°F-2.2°C 56% 8.6 mph NNE13.8 kmh NNE 15.9 mph25.6 kmh 30.25 in1024.4 mb 0.00 in0.0 mm 0.00 in/hr0.0 mm/hr 0.00 in0.0 mm
10:50 AM 44.1°F6.7°C 28.0°F-2.2°C 54% 8.6 mph NNE13.8 kmh NNE 17.4 mph28.0 kmh 30.25 in1024.4 mb 0.00 in0.0 mm 0.00 in/hr0.0 mm/hr 0.00 in0.0 mm
11:01 AM 44.8°F7.1°C 26.7°F-2.9°C 50% 10.0 mph NE16.1 kmh NE 19.7 mph31.7 kmh 30.25 in1024.4 mb 0.00 in0.0 mm 0.00 in/hr0.0 mm/hr 0.00 in0.0 mm
11:12 AM 45.3°F7.4°C 27.7°F-2.4°C 51% 7.6 mph NE12.2 kmh NE 19.0 mph30.6 kmh 30.23 in1023.7 mb 0.00 in0.0 mm 0.00 in/hr0.0 mm/hr 0.00 in0.0 mm
11:23 AM 46.6°F8.1°C 27.8°F-2.3°C 49% 8.9 mph NE14.3 kmh NE 16.8 mph27.0 kmh 30.23 in1023.7 mb 0.00 in0.0 mm 0.00 in/hr0.0 mm/hr 0.00 in0.0 mm
11:34 AM 47.5°F8.6°C 27.5°F-2.5°C 47% 9.1 mph NE14.6 kmh NE 19.0 mph30.6 kmh 30.24 in1024.0 mb 0.00 in0.0 mm 0.00 in/hr0.0 mm/hr 0.00 in0.0 mm
11:45 AM 48.0°F8.9°C 27.4°F-2.6°C 46% 8.3 mph NE13.4 kmh NE 18.3 mph29.5 kmh 30.24 in1024.0 mb 0.00 in0.0 mm 0.00 in/hr0.0 mm/hr 0.00 in0.0 mm
11:56 AM 48.4°F9.1°C 27.1°F-2.7°C 45% 10.5 mph N16.9 kmh N 20.6 mph33.2 kmh 30.23 in1023.7 mb 0.00 in0.0 mm 0.00 in/hr0.0 mm/hr 0.00 in0.0 mm
12:07 PM 48.6°F9.2°C 26.7°F-2.9°C 44% 11.8 mph NE19.0 kmh NE 21.3 mph34.3 kmh 30.23 in1023.7 mb 0.00 in0.0 mm 0.00 in/hr0.0 mm/hr 0.00 in0.0 mm
12:18 PM 49.8°F9.9°C 25.3°F-3.7°C 40% 9.9 mph NE15.9 kmh NE 19.7 mph31.7 kmh 30.23 in1023.7 mb 0.00 in0.0 mm 0.00 in/hr0.0 mm/hr 0.00 in0.0 mm
12:29 PM 50.0°F10.0°C 24.0°F-4.4°C 38% 12.1 mph NNE19.5 kmh NNE 21.3 mph34.3 kmh 30.22 in1023.4 mb 0.00 in0.0 mm 0.00 in/hr0.0 mm/hr 0.00 in0.0 mm
12:40 PM 50.9°F10.5°C 26.2°F-3.2°C 40% 9.2 mph NE14.8 kmh NE 19.0 mph30.6 kmh 30.22 in1023.4 mb 0.00 in0.0 mm 0.00 in/hr0.0 mm/hr 0.00 in0.0 mm
12:51 PM 50.9°F10.5°C 23.4°F-4.8°C 36% 11.4 mph NE18.3 kmh NE 22.1 mph35.6 kmh 30.21 in1023.0 mb 0.00 in0.0 mm 0.00 in/hr0.0 mm/hr 0.00 in0.0 mm
01:02 PM 52.2°F11.2°C 24.5°F-4.2°C 36% 10.3 mph NE16.6 kmh NE 23.5 mph37.8 kmh 30.21 in1023.0 mb 0.00 in0.0 mm 0.00 in/hr0.0 mm/hr 0.00 in0.0 mm
01:13 PM 52.7°F11.5°C 25.7°F-3.5°C 37% 8.3 mph NE13.4 kmh NE 19.0 mph30.6 kmh 30.21 in1023.0 mb 0.00 in0.0 mm 0.00 in/hr0.0 mm/hr 0.00 in0.0 mm
01:24 PM 53.1°F11.7°C 24.5°F-4.2°C 35% 9.7 mph NNE15.6 kmh NNE 18.3 mph29.5 kmh 30.21 in1023.0 mb 0.00 in0.0 mm 0.00 in/hr0.0 mm/hr 0.00 in0.0 mm
01:35 PM 53.8°F12.1°C 25.9°F-3.4°C 36% 9.4 mph NNE15.1 kmh NNE 18.3 mph29.5 kmh 30.20 in1022.7 mb 0.00 in0.0 mm 0.00 in/hr0.0 mm/hr 0.00 in0.0 mm
01:46 PM 53.8°F12.1°C 24.3°F-4.3°C 34% 9.1 mph NNE14.6 kmh NNE 20.6 mph33.2 kmh 30.20 in1022.7 mb 0.00 in0.0 mm 0.00 in/hr0.0 mm/hr 0.00 in0.0 mm
01:57 PM 53.8°F12.1°C 23.5°F-4.7°C 33% 12.7 mph NNE20.4 kmh NNE 24.4 mph39.3 kmh 30.19 in1022.4 mb 0.00 in0.0 mm 0.00 in/hr0.0 mm/hr 0.00 in0.0 mm
02:08 PM 54.0°F12.2°C 24.5°F-4.2°C 34% 10.8 mph N17.4 kmh N 19.7 mph31.7 kmh 30.19 in1022.4 mb 0.00 in0.0 mm 0.00 in/hr0.0 mm/hr 0.00 in0.0 mm
02:19 PM 54.0°F12.2°C 23.7°F-4.6°C 33% 14.6 mph NNE23.5 kmh NNE 23.5 mph37.8 kmh 30.19 in1022.4 mb 0.00 in0.0 mm 0.00 in/hr0.0 mm/hr 0.00 in0.0 mm
02:30 PM 54.9°F12.7°C 24.4°F-4.2°C 33% 10.0 mph NNE16.1 kmh NNE 17.4 mph28.0 kmh 30.19 in1022.4 mb 0.00 in0.0 mm 0.00 in/hr0.0 mm/hr 0.00 in0.0 mm
02:41 PM 54.5°F12.5°C 24.9°F-3.9°C 34% 11.9 mph N19.2 kmh N 22.8 mph36.7 kmh 30.18 in1022.0 mb 0.00 in0.0 mm 0.00 in/hr0.0 mm/hr 0.00 in0.0 mm
02:52 PM 54.7°F12.6°C 24.3°F-4.3°C 33% 14.0 mph N22.5 kmh N 24.4 mph39.3 kmh 30.18 in1022.0 mb 0.00 in0.0 mm 0.00 in/hr0.0 mm/hr 0.00 in0.0 mm
03:03 PM 54.7°F12.6°C 21.7°F-5.7°C 30% 13.8 mph N22.2 kmh N 22.8 mph36.7 kmh 30.18 in1022.0 mb 0.00 in0.0 mm 0.00 in/hr0.0 mm/hr 0.00 in0.0 mm
03:14 PM 54.9°F12.7°C 22.7°F-5.2°C 31% 13.8 mph NNE22.2 kmh NNE 23.5 mph37.8 kmh 30.18 in1022.0 mb 0.00 in0.0 mm 0.00 in/hr0.0 mm/hr 0.00 in0.0 mm
03:25 PM 55.8°F13.2°C 21.6°F-5.8°C 29% 12.1 mph NNE19.5 kmh NNE 21.3 mph34.3 kmh 30.18 in1022.0 mb 0.00 in0.0 mm 0.00 in/hr0.0 mm/hr 0.00 in0.0 mm
03:36 PM 55.6°F13.1°C 22.4°F-5.3°C 30% 13.5 mph NNE21.7 kmh NNE 24.4 mph39.3 kmh 30.18 in1022.0 mb 0.00 in0.0 mm 0.00 in/hr0.0 mm/hr 0.00 in0.0 mm
03:47 PM 56.3°F13.5°C 22.1°F-5.5°C 29% 12.6 mph NE20.3 kmh NE 22.1 mph35.6 kmh 30.17 in1021.7 mb 0.00 in0.0 mm 0.00 in/hr0.0 mm/hr 0.00 in0.0 mm
03:58 PM 56.5°F13.6°C 23.2°F-4.9°C 30% 12.0 mph NNE19.3 kmh NNE 20.6 mph33.2 kmh 30.18 in1022.0 mb 0.00 in0.0 mm 0.00 in/hr0.0 mm/hr 0.00 in0.0 mm
04:09 PM 56.3°F13.5°C 23.0°F-5.0°C 30% 10.5 mph NE16.9 kmh NE 22.8 mph36.7 kmh 30.18 in1022.0 mb 0.00 in0.0 mm 0.00 in/hr0.0 mm/hr 0.00 in0.0 mm
04:20 PM 56.8°F13.8°C 22.5°F-5.3°C 29% 11.2 mph NNE18.0 kmh NNE 20.6 mph33.2 kmh 30.18 in1022.0 mb 0.00 in0.0 mm 0.00 in/hr0.0 mm/hr 0.00 in0.0 mm
04:31 PM 56.7°F13.7°C 22.4°F-5.3°C 29% 12.4 mph NNE20.0 kmh NNE 23.5 mph37.8 kmh 30.18 in1022.0 mb 0.00 in0.0 mm 0.00 in/hr0.0 mm/hr 0.00 in0.0 mm
04:42 PM 56.5°F13.6°C 22.2°F-5.4°C 29% 12.5 mph NNE20.1 kmh NNE 22.8 mph36.7 kmh 30.18 in1022.0 mb 0.00 in0.0 mm 0.00 in/hr0.0 mm/hr 0.00 in0.0 mm
04:53 PM 56.1°F13.4°C 21.0°F-6.1°C 28% 12.4 mph NNE20.0 kmh NNE 21.3 mph34.3 kmh 30.18 in1022.0 mb 0.00 in0.0 mm 0.00 in/hr0.0 mm/hr 0.00 in0.0 mm
05:04 PM 56.1°F13.4°C 21.0°F-6.1°C 28% 13.7 mph NE22.0 kmh NE 23.5 mph37.8 kmh 30.18 in1022.0 mb 0.00 in0.0 mm 0.00 in/hr0.0 mm/hr 0.00 in0.0 mm
05:15 PM 56.1°F13.4°C 21.0°F-6.1°C 28% 12.6 mph NE20.3 kmh NE 24.4 mph39.3 kmh 30.18 in1022.0 mb 0.00 in0.0 mm 0.00 in/hr0.0 mm/hr 0.00 in0.0 mm
05:26 PM 55.6°F13.1°C 20.5°F-6.4°C 28% 13.3 mph NNE21.4 kmh NNE 24.4 mph39.3 kmh 30.18 in1022.0 mb 0.00 in0.0 mm 0.00 in/hr0.0 mm/hr 0.00 in0.0 mm
05:37 PM 55.0°F12.8°C 19.1°F-7.2°C 27% 12.5 mph N20.1 kmh N 22.1 mph35.6 kmh 30.18 in1022.0 mb 0.00 in0.0 mm 0.00 in/hr0.0 mm/hr 0.00 in0.0 mm
05:48 PM 54.9°F12.7°C 18.9°F-7.3°C 27% 11.9 mph NNE19.2 kmh NNE 22.8 mph36.7 kmh 30.19 in1022.4 mb 0.00 in0.0 mm 0.00 in/hr0.0 mm/hr 0.00 in0.0 mm
05:59 PM 54.1°F12.3°C 19.3°F-7.1°C 28% 15.0 mph NE24.1 kmh NE 28.2 mph45.4 kmh 30.19 in1022.4 mb 0.00 in0.0 mm 0.00 in/hr0.0 mm/hr 0.00 in0.0 mm
06:10 PM 54.0°F12.2°C 20.1°F-6.6°C 29% 10.9 mph NE17.5 kmh NE 25.1 mph40.4 kmh 30.19 in1022.4 mb 0.00 in0.0 mm 0.00 in/hr0.0 mm/hr 0.00 in0.0 mm
06:21 PM 53.4°F11.9°C 20.6°F-6.3°C 30% 15.3 mph NNE24.6 kmh NNE 23.5 mph37.8 kmh 30.20 in1022.7 mb 0.00 in0.0 mm 0.00 in/hr0.0 mm/hr 0.00 in0.0 mm
06:32 PM 53.1°F11.7°C 20.3°F-6.5°C 30% 12.6 mph NNE20.3 kmh NNE 22.1 mph35.6 kmh 30.20 in1022.7 mb 0.00 in0.0 mm 0.00 in/hr0.0 mm/hr 0.00 in0.0 mm
06:43 PM 52.5°F11.4°C 20.7°F-6.3°C 31% 12.8 mph NNE20.6 kmh NNE 21.3 mph34.3 kmh 30.20 in1022.7 mb 0.00 in0.0 mm 0.00 in/hr0.0 mm/hr 0.00 in0.0 mm
06:54 PM 51.6°F10.9°C 20.0°F-6.7°C 31% 11.1 mph NE17.9 kmh NE 19.0 mph30.6 kmh 30.21 in1023.0 mb 0.00 in0.0 mm 0.00 in/hr0.0 mm/hr 0.00 in0.0 mm
07:05 PM 51.1°F10.6°C 20.4°F-6.4°C 32% 12.7 mph N20.4 kmh N 20.6 mph33.2 kmh 30.21 in1023.0 mb 0.00 in0.0 mm 0.00 in/hr0.0 mm/hr 0.00 in0.0 mm
07:16 PM 50.0°F10.0°C 20.3°F-6.5°C 33% 9.1 mph NNE14.6 kmh NNE 16.8 mph27.0 kmh 30.22 in1023.4 mb 0.00 in0.0 mm 0.00 in/hr0.0 mm/hr 0.00 in0.0 mm
07:27 PM 48.7°F9.3°C 20.0°F-6.7°C 34% 3.8 mph NE6.1 kmh NE 10.7 mph17.2 kmh 30.22 in1023.4 mb 0.00 in0.0 mm 0.00 in/hr0.0 mm/hr 0.00 in0.0 mm
07:38 PM 47.5°F8.6°C 19.7°F-6.8°C 35% 6.8 mph NNE10.9 kmh NNE 13.0 mph20.9 kmh 30.22 in1023.4 mb 0.00 in0.0 mm 0.00 in/hr0.0 mm/hr 0.00 in0.0 mm
07:49 PM 46.8°F8.2°C 19.8°F-6.8°C 36% 10.1 mph N16.3 kmh N 16.8 mph27.0 kmh 30.22 in1023.4 mb 0.00 in0.0 mm 0.00 in/hr0.0 mm/hr 0.00 in0.0 mm
08:00 PM 46.0°F7.8°C 19.2°F-7.1°C 36% 9.1 mph N14.6 kmh N 16.8 mph27.0 kmh 30.22 in1023.4 mb 0.00 in0.0 mm 0.00 in/hr0.0 mm/hr 0.00 in0.0 mm
08:11 PM 45.1°F7.3°C 19.1°F-7.2°C 37% 4.9 mph N7.9 kmh N 9.2 mph14.8 kmh 30.23 in1023.7 mb 0.00 in0.0 mm 0.00 in/hr0.0 mm/hr 0.00 in0.0 mm
08:22 PM 45.1°F7.3°C 19.1°F-7.2°C 37% 1.7 mph NE2.7 kmh NE 6.0 mph9.7 kmh 30.23 in1023.7 mb 0.00 in0.0 mm 0.00 in/hr0.0 mm/hr 0.00 in0.0 mm
08:33 PM 45.0°F7.2°C 18.9°F-7.3°C 37% 4.9 mph N7.9 kmh N 11.4 mph18.3 kmh 30.23 in1023.7 mb 0.00 in0.0 mm 0.00 in/hr0.0 mm/hr 0.00 in0.0 mm
08:44 PM 44.2°F6.8°C 19.0°F-7.2°C 38% 6.1 mph N9.8 kmh N 13.6 mph21.9 kmh 30.23 in1023.7 mb 0.00 in0.0 mm 0.00 in/hr0.0 mm/hr 0.00 in0.0 mm
08:55 PM 43.7°F6.5°C 19.2°F-7.1°C 39% 8.4 mph N13.5 kmh N 13.6 mph21.9 kmh 30.23 in1023.7 mb 0.00 in0.0 mm 0.00 in/hr0.0 mm/hr 0.00 in0.0 mm
09:06 PM 43.0°F6.1°C 19.2°F-7.1°C 40% 8.4 mph N13.5 kmh N 13.0 mph20.9 kmh 30.23 in1023.7 mb 0.00 in0.0 mm 0.00 in/hr0.0 mm/hr 0.00 in0.0 mm
09:17 PM 42.1°F5.6°C 19.7°F-6.8°C 42% 3.7 mph NNE6.0 kmh NNE 11.4 mph18.3 kmh 30.24 in1024.0 mb 0.00 in0.0 mm 0.00 in/hr0.0 mm/hr 0.00 in0.0 mm
09:28 PM 41.7°F5.4°C 20.0°F-6.7°C 43% 2.4 mph E3.9 kmh E 7.6 mph12.2 kmh 30.23 in1023.7 mb 0.00 in0.0 mm 0.00 in/hr0.0 mm/hr 0.00 in0.0 mm
09:39 PM 42.3°F5.7°C 20.5°F-6.4°C 43% 7.0 mph N11.3 kmh N 13.0 mph20.9 kmh 30.23 in1023.7 mb 0.00 in0.0 mm 0.00 in/hr0.0 mm/hr 0.00 in0.0 mm
09:50 PM 41.2°F5.1°C 20.7°F-6.3°C 45% 6.5 mph N10.5 kmh N 11.4 mph18.3 kmh 30.24 in1024.0 mb 0.00 in0.0 mm 0.00 in/hr0.0 mm/hr 0.00 in0.0 mm
10:01 PM 40.8°F4.9°C 20.9°F-6.2°C 46% 4.2 mph N6.8 kmh N 9.8 mph15.8 kmh 30.24 in1024.0 mb 0.00 in0.0 mm 0.00 in/hr0.0 mm/hr 0.00 in0.0 mm
10:12 PM 41.0°F5.0°C 21.1°F-6.1°C 46% 6.6 mph N10.6 kmh N 9.8 mph15.8 kmh 30.24 in1024.0 mb 0.00 in0.0 mm 0.00 in/hr0.0 mm/hr 0.00 in0.0 mm
10:23 PM 40.5°F4.7°C 21.1°F-6.1°C 47% 6.0 mph N9.7 kmh N 9.8 mph15.8 kmh 30.24 in1024.0 mb 0.00 in0.0 mm 0.00 in/hr0.0 mm/hr 0.00 in0.0 mm
10:34 PM 39.7°F4.3°C 21.0°F-6.1°C 48% 4.2 mph N6.8 kmh N 8.3 mph13.4 kmh 30.25 in1024.4 mb 0.00 in0.0 mm 0.00 in/hr0.0 mm/hr 0.00 in0.0 mm
10:45 PM 39.2°F4.0°C 21.1°F-6.1°C 49% 5.1 mph N8.2 kmh N 9.2 mph14.8 kmh 30.25 in1024.4 mb 0.00 in0.0 mm 0.00 in/hr0.0 mm/hr 0.00 in0.0 mm
10:56 PM 39.2°F4.0°C 21.6°F-5.8°C 50% 6.6 mph N10.6 kmh N 10.7 mph17.2 kmh 30.25 in1024.4 mb 0.00 in0.0 mm 0.00 in/hr0.0 mm/hr 0.00 in0.0 mm
11:07 PM 39.2°F4.0°C 21.6°F-5.8°C 50% 4.0 mph N6.4 kmh N 6.9 mph11.1 kmh 30.25 in1024.4 mb 0.00 in0.0 mm 0.00 in/hr0.0 mm/hr 0.00 in0.0 mm
11:18 PM 39.0°F3.9°C 21.4°F-5.9°C 50% 2.4 mph N3.9 kmh N 6.0 mph9.7 kmh 30.25 in1024.4 mb 0.00 in0.0 mm 0.00 in/hr0.0 mm/hr 0.00 in0.0 mm
11:29 PM 38.7°F3.7°C 20.6°F-6.3°C 49% 2.5 mph N4.0 kmh N 5.4 mph8.7 kmh 30.25 in1024.4 mb 0.00 in0.0 mm 0.00 in/hr0.0 mm/hr 0.00 in0.0 mm
11:40 PM 39.2°F4.0°C 20.0°F-6.7°C 47% 4.2 mph NE6.8 kmh NE 12.1 mph19.5 kmh 30.25 in1024.4 mb 0.00 in0.0 mm 0.00 in/hr0.0 mm/hr 0.00 in0.0 mm
11:51 PM 39.4°F4.1°C 20.2°F-6.6°C 47% 6.5 mph N10.5 kmh N 14.5 mph23.3 kmh 30.25 in1024.4 mb 0.00 in0.0 mm 0.00 in/hr0.0 mm/hr 0.00 in0.0 mm